.
WxDataArchive / Data Records for 2013-10-28
2013-10-27 October 2013 2013-10-29

Data Records for Monday, 28 October 2013

Time	Temp	Chill	HIndex	Humid	Dewpt	 Wind 	HiWind	WindDir	Rain 	Barom 
-----	----	-----	------	-----	-----	------	------	-------	-----	----- 
00:00	33.2	33.2	33.2	84	28.9	0	0	---	0.00	30.072 
00:05	33.1	33.1	33.1	85	29.1	0	0	---	0.00	30.072 
00:10	33.1	33.1	33.1	85	29.1	0	0	---	0.00	30.072 
00:15	33.1	33.1	33.1	85	29.1	0	0	---	0.00	30.069 
00:20	33.1	33.1	33.1	85	29.1	0	0	---	0.00	30.069 
00:25	32.9	32.9	32.9	85	28.9	0	0	---	0.00	30.069 
00:30	32.8	32.8	32.8	85	28.8	0	0	---	0.00	30.068 
00:35	32.8	32.8	32.8	86	29.1	0	0	---	0.00	30.068 
00:40	32.8	32.8	32.8	86	29.1	0	0	---	0.00	30.068 
00:45	32.9	32.9	32.9	86	29.2	0	0	---	0.00	30.072 
00:50	32.9	32.9	32.9	86	29.2	0	0	---	0.00	30.072 
00:55	32.9	32.9	32.9	86	29.2	0	0	---	0.00	30.072 
01:00	32.9	32.9	32.9	86	29.2	0	0	---	0.00	30.073 
01:05	32.9	32.9	32.9	86	29.2	0	0	---	0.00	30.073 
01:10	32.9	32.9	32.9	86	29.2	0	0	---	0.00	30.073 
01:15	32.9	32.9	32.9	86	29.2	0	0	---	0.00	30.075 
01:20	32.9	32.9	32.9	86	29.2	0	0	---	0.00	30.075 
01:25	32.9	32.9	32.9	86	29.2	0	0	---	0.00	30.075 
01:30	32.9	32.9	32.9	86	29.2	0	0	---	0.00	30.074 
01:35	32.9	32.9	32.9	86	29.2	0	0	---	0.00	30.074 
01:40	32.8	32.8	32.8	86	29.1	0	0	---	0.00	30.074 
01:45	32.8	32.8	32.8	86	29.1	0	0	---	0.00	30.077 
01:50	32.8	32.8	32.8	86	29.1	0	0	---	0.00	30.077 
01:55	32.8	32.8	32.8	86	29.1	0	0	---	0.00	30.077 
02:00	32.7	32.7	32.7	86	29.0	0	0	---	0.00	30.083 
02:05	32.7	32.7	32.7	86	29.0	0	0	---	0.00	30.083 
02:10	32.7	32.7	32.7	86	29.0	0	0	---	0.00	30.083 
02:15	32.7	32.7	32.7	86	29.0	0	0	---	0.00	30.093 
02:20	32.7	32.7	32.7	86	29.0	0	0	---	0.00	30.093 
02:25	32.5	32.5	32.5	86	28.8	0	0	---	0.00	30.093 
02:30	32.5	32.5	32.5	86	28.8	0	0	---	0.00	30.101 
02:35	32.4	32.4	32.4	86	28.7	0	0	---	0.00	30.101 
02:40	32.4	32.4	32.4	86	28.7	0	0	---	0.00	30.101 
02:45	32.4	32.4	32.4	86	28.7	0	0	---	0.00	30.105 
02:50	32.4	32.4	32.4	86	28.7	0	0	---	0.00	30.105 
02:55	32.4	32.4	32.4	86	28.7	0	0	---	0.00	30.105 
03:00	32.4	32.4	32.4	86	28.7	0	0	---	0.00	30.112 
03:05	32.4	32.4	32.4	86	28.7	0	0	---	0.00	30.112 
03:10	32.4	32.4	32.4	87	29.0	0	0	---	0.00	30.112 
03:15	32.2	32.2	32.2	87	28.8	0	0	---	0.00	30.113 
03:20	32.2	32.2	32.2	87	28.8	0	0	---	0.00	30.113 
03:25	32.1	32.1	32.1	87	28.7	0	0	---	0.00	30.113 
03:30	31.9	31.9	31.9	87	28.5	0	0	---	0.00	30.112 
03:35	31.6	31.6	31.6	87	28.2	0	0	---	0.00	30.112 
03:40	31.5	31.5	31.5	87	28.1	0	0	---	0.00	30.112 
03:45	31.2	31.2	31.2	87	27.8	0	0	---	0.00	30.115 
03:50	31.0	31.0	31.0	87	27.6	0	0	---	0.00	30.115 
03:55	30.9	30.9	30.9	87	27.5	0	0	---	0.00	30.115 
04:00	30.7	30.7	30.7	88	27.6	0	0	---	0.00	30.114 
04:05	30.7	30.7	30.7	88	27.6	0	0	---	0.00	30.114 
04:10	30.6	30.6	30.6	88	27.5	0	0	---	0.00	30.114 
04:15	30.6	30.6	30.6	88	27.5	0	0	---	0.00	30.114 
04:20	30.4	30.4	30.4	88	27.3	0	0	---	0.00	30.114 
04:25	30.4	30.4	30.4	88	27.3	0	0	---	0.00	30.114 
04:30	30.3	30.3	30.3	88	27.2	0	0	---	0.00	30.115 
04:35	30.3	30.3	30.3	88	27.2	0	0	---	0.00	30.115 
04:40	30.3	30.3	30.3	88	27.2	0	0	---	0.00	30.115 
04:45	30.1	30.1	30.1	89	27.3	0	0	---	0.00	30.115 
04:50	30.0	30.0	30.0	89	27.2	0	0	---	0.00	30.115 
04:55	30.0	30.0	30.0	89	27.2	0	0	---	0.00	30.115 
05:00	29.8	29.8	29.8	89	27.0	0	0	---	0.00	30.115 
05:05	29.8	29.8	29.8	89	27.0	0	0	---	0.00	30.115 
05:10	29.8	29.8	29.8	89	27.0	0	0	---	0.00	30.115 
05:15	29.8	29.8	29.8	89	27.0	0	0	---	0.00	30.121 
05:20	29.7	29.7	29.7	89	26.9	0	0	---	0.00	30.121 
05:25	29.7	29.7	29.7	89	26.9	0	0	---	0.00	30.121 
05:30	29.7	29.7	29.7	90	27.1	0	0	---	0.00	30.128 
05:35	29.5	29.5	29.5	90	26.9	0	0	---	0.00	30.128 
05:40	29.5	29.5	29.5	90	26.9	0	0	---	0.00	30.128 
05:45	29.5	29.5	29.5	90	26.9	0	0	---	0.00	30.132 
05:50	29.4	29.4	29.4	90	26.8	0	0	---	0.00	30.132 
05:55	29.4	29.4	29.4	90	26.8	0	0	---	0.00	30.132 
06:00	29.4	29.4	29.4	90	26.8	0	0	---	0.00	30.136 
06:05	29.4	29.4	29.4	90	26.8	0	0	---	0.00	30.136 
06:10	29.4	29.4	29.4	90	26.8	0	0	---	0.00	30.136 
06:15	29.4	29.4	29.4	90	26.8	0	0	---	0.00	30.147 
06:20	29.4	29.4	29.4	91	27.1	0	0	---	0.00	30.147 
06:25	29.4	29.4	29.4	91	27.1	0	0	---	0.00	30.147 
06:30	29.3	29.3	29.3	91	27.0	0	0	---	0.00	30.151 
06:35	29.3	29.3	29.3	91	27.0	0	0	---	0.00	30.151 
06:40	29.1	29.1	29.1	91	26.8	0	0	---	0.00	30.151 
06:45	29.1	29.1	29.1	91	26.8	0	0	---	0.00	30.155 
06:50	29.1	29.1	29.1	91	26.8	0	0	---	0.00	30.155 
06:55	29.1	29.1	29.1	91	26.8	0	0	---	0.00	30.155 
07:00	29.1	29.1	29.1	91	26.8	0	0	---	0.00	30.158 
07:05	29.3	29.3	29.3	91	27.0	0	0	---	0.00	30.158 
07:10	29.3	29.3	29.3	91	27.0	0	0	---	0.00	30.158 
07:15	29.3	29.3	29.3	91	27.0	0	0	---	0.00	30.174 
07:20	29.3	29.3	29.3	91	27.0	0	0	---	0.00	30.174 
07:25	29.3	29.3	29.3	91	27.0	0	0	---	0.00	30.174 
07:30	29.3	29.3	29.3	91	27.0	0	0	---	0.00	30.176 
07:35	29.1	29.1	29.1	91	26.8	0	0	---	0.00	30.176 
07:40	29.3	29.3	29.3	91	27.0	0	0	---	0.00	30.176 
07:45	29.3	29.3	29.3	91	27.0	0	0	---	0.00	30.188 
07:50	29.4	29.4	29.4	92	27.4	0	0	---	0.00	30.188 
07:55	29.4	29.4	29.4	92	27.4	0	0	---	0.00	30.188 
08:00	29.4	29.4	29.4	92	27.4	0	0	---	0.00	30.191 
08:05	29.5	29.5	29.5	92	27.5	0	0	---	0.00	30.191 
08:10	29.5	29.5	29.5	92	27.5	0	0	---	0.00	30.191 
08:15	29.5	29.5	29.5	92	27.5	0	0	---	0.00	30.203 
08:20	29.5	29.5	29.5	92	27.5	0	0	---	0.00	30.203 
08:25	29.5	29.5	29.5	92	27.5	0	0	---	0.00	30.203 
08:30	29.5	29.5	29.5	92	27.5	0	0	---	0.00	30.208 
08:35	29.5	29.5	29.5	92	27.5	0	0	---	0.00	30.208 
08:40	29.5	29.5	29.5	92	27.5	0	0	---	0.00	30.208 
08:45	29.8	29.8	29.8	92	27.8	0	0	---	0.00	30.212 
08:50	30.0	30.0	30.0	92	28.0	0	0	---	0.00	30.212 
08:55	30.3	30.3	30.3	92	28.3	0	0	---	0.00	30.212 
09:00	30.6	30.6	30.6	92	28.6	0	0	---	0.00	30.218 
09:05	31.0	31.0	31.0	92	29.0	0	0	---	0.00	30.218 
09:10	31.3	31.3	31.3	92	29.3	0	0	---	0.00	30.218 
09:15	31.8	31.8	31.8	93	30.0	0	0	---	0.00	30.225 
09:20	32.5	32.5	32.5	93	30.7	0	0	---	0.00	30.225 
09:25	33.4	33.4	33.4	93	31.6	0	0	---	0.00	30.225 
09:30	34.3	34.3	34.3	93	32.5	0	0	---	0.00	30.231 
09:35	35.3	35.3	35.3	93	33.5	0	0	---	0.00	30.231 
09:40	36.3	36.3	36.3	93	34.5	0	0	---	0.00	30.231 
09:45	37.2	37.2	37.2	92	35.1	0	0	---	0.00	30.231 
09:50	38.2	38.2	38.2	91	35.8	0	1	248	0.00	30.231 
09:55	39.3	39.3	39.3	88	36.0	0	1	248	0.00	30.231 
10:00	40.5	40.5	40.5	84	36.1	0	1	248	0.00	30.232 
10:05	41.3	41.3	41.3	80	35.6	0	0	---	0.00	30.232 
10:10	42.2	42.2	42.2	77	35.5	0	0	---	0.00	30.232 
10:15	43.1	43.1	43.1	73	35.0	0	0	---	0.00	30.237 
10:20	43.9	43.9	43.9	70	34.8	0	0	---	0.00	30.237 
10:25	44.6	44.6	44.6	67	34.3	0	0	---	0.00	30.237 
10:30	45.4	45.4	45.4	65	34.3	0	0	---	0.00	30.244 
10:35	46.1	46.1	46.1	62	33.8	0	0	---	0.00	30.244 
10:40	46.8	46.8	46.8	60	33.7	0	1	248	0.00	30.244 
10:45	47.7	47.7	47.7	58	33.7	0	1	248	0.00	30.242 
10:50	48.3	48.3	48.3	57	33.8	0	1	248	0.00	30.242 
10:55	48.8	48.8	48.8	56	33.8	0	2	22	0.00	30.242 
11:00	49.1	49.1	49.1	55	33.6	1	2	68	0.00	30.243 
11:05	49.5	49.5	49.5	56	34.5	0	2	68	0.00	30.243 
11:10	49.6	49.6	49.6	54	33.6	1	2	68	0.00	30.243 
11:15	49.9	49.9	49.9	54	33.9	0	2	68	0.00	30.244 
11:20	50.5	50.5	50.5	52	33.5	0	2	68	0.00	30.244 
11:25	51.0	51.0	51.0	52	34.0	0	2	68	0.00	30.244 
11:30	51.3	51.3	51.3	52	34.3	0	2	90	0.00	30.252 
11:35	51.9	51.9	51.9	53	35.3	1	3	90	0.00	30.252 
11:40	52.2	52.2	52.2	50	34.1	1	4	90	0.00	30.252 
11:45	52.3	52.3	52.3	51	34.7	1	4	90	0.00	30.251 
11:50	52.6	52.6	52.6	52	35.5	0	2	90	0.00	30.251 
11:55	52.9	52.9	52.9	53	36.2	0	3	90	0.00	30.251 
12:00	53.2	53.2	53.2	53	36.5	1	3	90	0.00	30.250 
12:05	53.5	53.5	53.5	53	36.8	1	3	90	0.00	30.250 
12:10	53.8	53.8	53.8	51	36.1	1	3	90	0.00	30.250 
12:15	53.8	53.8	53.8	53	37.1	1	4	90	0.00	30.251 
12:20	53.8	53.8	53.8	52	36.6	2	6	90	0.00	30.251 
12:25	53.8	53.8	53.8	54	37.5	1	3	90	0.00	30.251 
12:30	54.2	54.2	54.2	53	37.4	0	2	90	0.00	30.253 
12:35	54.5	54.5	54.5	53	37.7	1	4	90	0.00	30.253 
12:40	54.5	54.5	54.5	52	37.2	1	2	90	0.00	30.253 
12:45	54.5	54.5	54.5	53	37.7	1	4	90	0.00	30.253 
12:50	54.7	54.7	54.7	51	36.9	1	4	90	0.00	30.253 
12:55	54.7	54.7	54.7	53	37.9	0	3	90	0.00	30.253 
13:00	54.7	54.7	54.7	51	36.9	1	5	90	0.00	30.252 
13:05	54.7	54.7	54.7	49	35.9	1	4	90	0.00	30.252 
13:10	54.7	54.7	54.7	51	36.9	1	4	90	0.00	30.252 
13:15	54.5	54.5	54.5	50	36.2	2	5	90	0.00	30.251 
13:20	54.5	54.5	54.5	48	35.2	0	2	90	0.00	30.251 
13:25	54.7	54.7	54.7	49	35.9	0	1	90	0.00	30.251 
13:30	54.8	54.8	54.8	48	35.5	0	2	90	0.00	30.250 
13:35	55.0	55.0	55.0	48	35.7	1	4	90	0.00	30.250 
13:40	55.1	55.1	55.1	50	36.8	1	5	90	0.00	30.250 
13:45	55.1	55.1	55.1	48	35.8	1	3	90	0.00	30.247 
13:50	55.3	55.3	55.3	47	35.4	0	1	90	0.00	30.247 
13:55	55.6	55.6	55.6	45	34.6	0	2	90	0.00	30.247 
14:00	55.6	55.6	55.6	44	34.0	1	3	90	0.00	30.244 
14:05	55.4	55.4	55.4	46	35.0	1	3	90	0.00	30.244 
14:10	55.4	55.4	55.4	48	36.0	1	3	90	0.00	30.244 
14:15	55.6	55.6	55.6	45	34.6	0	2	90	0.00	30.239 
14:20	55.7	55.7	55.7	47	35.8	0	3	90	0.00	30.239 
14:25	55.9	55.9	55.9	46	35.4	1	2	90	0.00	30.239 
14:30	55.9	55.9	55.9	44	34.3	1	4	90	0.00	30.240 
14:35	55.9	55.9	55.9	46	35.4	0	2	90	0.00	30.240 
14:40	56.2	56.2	56.2	46	35.7	0	1	90	0.00	30.240 
14:45	56.3	56.3	56.3	45	35.2	0	2	202	0.00	30.239 
14:50	56.3	56.3	56.3	45	35.2	0	2	202	0.00	30.239 
14:55	56.3	56.3	56.3	45	35.2	0	3	202	0.00	30.239 
15:00	56.5	56.5	56.5	45	35.4	0	2	158	0.00	30.238 
15:05	56.6	56.6	56.6	45	35.5	0	1	158	0.00	30.238 
15:10	56.7	56.7	56.7	45	35.6	0	2	158	0.00	30.238 
15:15	56.9	56.9	56.9	45	35.8	0	3	158	0.00	30.239 
15:20	56.9	56.9	56.9	45	35.8	1	3	158	0.00	30.239 
15:25	56.7	56.7	56.7	47	36.7	1	3	158	0.00	30.239 
15:30	56.7	56.7	56.7	46	36.2	1	3	112	0.00	30.238 
15:35	56.6	56.6	56.6	45	35.5	1	2	112	0.00	30.238 
15:40	56.5	56.5	56.5	46	36.0	0	1	112	0.00	30.238 
15:45	56.3	56.3	56.3	47	36.3	0	1	112	0.00	30.243 
15:50	56.2	56.2	56.2	49	37.3	0	2	112	0.00	30.243 
15:55	56.2	56.2	56.2	49	37.3	0	1	112	0.00	30.243 
16:00	56.3	56.3	56.3	48	36.9	1	2	112	0.00	30.243 
16:05	56.3	56.3	56.3	49	37.4	0	3	112	0.00	30.243 
16:10	56.5	56.5	56.5	47	36.5	0	2	112	0.00	30.243 
16:15	56.3	56.3	56.3	46	35.8	1	4	112	0.00	30.248 
16:20	56.2	56.2	56.2	48	36.8	0	1	22	0.00	30.248 
16:25	56.0	56.0	56.0	48	36.6	0	3	22	0.00	30.248 
16:30	56.0	56.0	56.0	48	36.6	0	2	22	0.00	30.247 
16:35	56.0	56.0	56.0	46	35.5	0	1	22	0.00	30.247 
16:40	56.2	56.2	56.2	47	36.2	0	1	22	0.00	30.247 
16:45	56.3	56.3	56.3	47	36.3	0	1	22	0.00	30.252 
16:50	56.3	56.3	56.3	49	37.4	0	1	22	0.00	30.252 
16:55	56.3	56.3	56.3	47	36.3	1	3	45	0.00	30.252 
17:00	56.2	56.2	56.2	47	36.2	0	2	45	0.00	30.253 
17:05	56.0	56.0	56.0	47	36.1	0	1	45	0.00	30.253 
17:10	56.0	56.0	56.0	49	37.1	0	1	45	0.00	30.253 
17:15	55.9	55.9	55.9	47	36.0	0	1	45	0.00	30.256 
17:20	55.7	55.7	55.7	48	36.3	0	1	45	0.00	30.256 
17:25	55.7	55.7	55.7	49	36.8	0	0	---	0.00	30.256 
17:30	55.7	55.7	55.7	47	35.8	0	3	45	0.00	30.256 
17:35	55.7	55.7	55.7	49	36.8	0	1	45	0.00	30.256 
17:40	55.6	55.6	55.6	47	35.7	0	1	45	0.00	30.256 
17:45	55.4	55.4	55.4	48	36.0	0	1	45	0.00	30.260 
17:50	55.1	55.1	55.1	48	35.8	0	1	45	0.00	30.260 
17:55	55.0	55.0	55.0	48	35.7	0	0	---	0.00	30.260 
18:00	54.7	54.7	54.7	48	35.4	0	0	---	0.00	30.264 
18:05	54.5	54.5	54.5	49	35.7	0	0	---	0.00	30.264 
18:10	54.2	54.2	54.2	50	36.0	0	0	---	0.00	30.264 
18:15	53.9	53.9	53.9	50	35.7	0	0	---	0.00	30.266 
18:20	53.6	53.6	53.6	50	35.4	0	0	---	0.00	30.266 
18:25	53.2	53.2	53.2	51	35.5	0	0	---	0.00	30.266 
18:30	52.8	52.8	52.8	52	35.7	0	0	---	0.00	30.272 
18:35	52.3	52.3	52.3	53	35.7	0	0	---	0.00	30.272 
18:40	51.7	51.7	51.7	54	35.6	0	0	---	0.00	30.272 
18:45	51.3	51.3	51.3	55	35.7	0	0	---	0.00	30.275 
18:50	50.8	50.8	50.8	55	35.2	0	0	---	0.00	30.275 
18:55	50.4	50.4	50.4	57	35.7	0	0	---	0.00	30.275 
19:00	49.9	49.9	49.9	58	35.7	0	0	---	0.00	30.283 
19:05	49.4	49.4	49.4	58	35.2	0	0	---	0.00	30.283 
19:10	48.9	48.9	48.9	60	35.6	0	0	---	0.00	30.283 
19:15	48.5	48.5	48.5	60	35.3	0	0	---	0.00	30.287 
19:20	48.0	48.0	48.0	63	36.0	0	0	---	0.00	30.287 
19:25	47.6	47.6	47.6	64	36.0	0	0	---	0.00	30.287 
19:30	47.0	47.0	47.0	65	35.9	0	0	---	0.00	30.294 
19:35	46.5	46.5	46.5	65	35.4	0	0	---	0.00	30.294 
19:40	46.1	46.1	46.1	67	35.8	0	0	---	0.00	30.294 
19:45	45.7	45.7	45.7	68	35.8	0	0	---	0.00	30.298 
19:50	45.2	45.2	45.2	69	35.6	0	0	---	0.00	30.298 
19:55	44.9	44.9	44.9	69	35.4	0	0	---	0.00	30.298 
20:00	44.5	44.5	44.5	70	35.3	0	0	---	0.00	30.301 
20:05	44.2	44.2	44.2	71	35.4	0	0	---	0.00	30.301 
20:10	43.9	43.9	43.9	73	35.8	0	0	---	0.00	30.301 
20:15	43.6	43.6	43.6	73	35.5	0	0	---	0.00	30.304 
20:20	43.3	43.3	43.3	74	35.6	0	0	---	0.00	30.304 
20:25	43.1	43.1	43.1	74	35.4	0	0	---	0.00	30.304 
20:30	42.8	42.8	42.8	74	35.1	0	0	---	0.00	30.304 
20:35	42.6	42.6	42.6	75	35.2	0	0	---	0.00	30.304 
20:40	42.3	42.3	42.3	76	35.3	0	0	---	0.00	30.304 
20:45	42.1	42.1	42.1	76	35.1	0	0	---	0.00	30.306 
20:50	41.9	41.9	41.9	77	35.2	0	0	---	0.00	30.306 
20:55	41.8	41.8	41.8	77	35.1	0	1	45	0.00	30.306 
21:00	42.3	42.3	42.3	76	35.3	0	3	45	0.00	30.315 
21:05	43.5	43.5	43.5	72	35.1	1	2	45	0.00	30.315 
21:10	44.5	44.5	44.5	69	35.0	1	3	45	0.00	30.315 
21:15	45.2	45.2	45.2	67	34.9	1	4	45	0.00	30.304 
21:20	45.5	45.5	45.5	68	35.6	1	5	68	0.00	30.304 
21:25	45.5	45.5	45.5	69	35.9	1	2	68	0.00	30.304 
21:30	45.5	45.5	45.5	70	36.3	1	3	68	0.00	30.304 
21:35	45.5	45.5	45.5	70	36.3	1	3	68	0.00	30.304 
21:40	45.4	45.4	45.4	72	36.9	0	2	68	0.00	30.304 
21:45	45.2	45.2	45.2	73	37.1	1	3	68	0.00	30.315 
21:50	44.9	44.9	44.9	74	37.1	1	3	68	0.00	30.315 
21:55	44.8	44.8	44.8	75	37.4	0	2	68	0.00	30.315 
22:00	44.6	44.6	44.6	76	37.5	0	1	68	0.00	30.319 
22:05	44.3	44.3	44.3	76	37.2	0	2	68	0.00	30.319 
22:10	44.2	44.2	44.2	77	37.5	0	1	68	0.00	30.319 
22:15	43.9	43.9	43.9	77	37.2	0	1	68	0.00	30.323 
22:20	43.6	43.6	43.6	79	37.5	0	1	68	0.00	30.323 
22:25	43.5	43.5	43.5	79	37.4	0	1	68	0.00	30.323 
22:30	43.3	43.3	43.3	80	37.6	0	1	68	0.00	30.329 
22:35	43.1	43.1	43.1	80	37.4	0	1	68	0.00	30.329 
22:40	42.9	42.9	42.9	81	37.5	0	0	---	0.00	30.329 
22:45	42.6	42.6	42.6	81	37.2	0	0	---	0.00	30.331 
22:50	42.3	42.3	42.3	80	36.6	0	0	---	0.00	30.331 
22:55	41.9	41.9	41.9	81	36.5	0	0	---	0.00	30.331 
23:00	41.6	41.6	41.6	81	36.2	0	0	---	0.00	30.340 
23:05	41.2	41.2	41.2	82	36.1	0	0	---	0.00	30.340 
23:10	40.8	40.8	40.8	82	35.7	0	0	---	0.00	30.340 
23:15	40.6	40.6	40.6	83	35.8	0	0	---	0.00	30.339 
23:20	40.3	40.3	40.3	83	35.6	0	0	---	0.00	30.339 
23:25	40.3	40.3	40.3	85	36.2	0	1	68	0.00	30.339 
23:30	40.5	40.5	40.5	86	36.6	0	1	68	0.00	30.342 
23:35	40.8	40.8	40.8	86	36.9	0	1	68	0.00	30.342 
23:40	40.8	40.8	40.8	86	36.9	0	1	68	0.00	30.342 
23:45	41.1	41.1	41.1	87	37.5	0	2	68	0.00	30.344 
23:50	41.1	41.1	41.1	87	37.5	0	2	68	0.00	30.344 
23:55	41.1	41.1	41.1	87	37.5	0	1	68	0.00	30.344 

CoCoRaHS
IN-AL-39
A2 Web Hosting
Creative Commons License
GoDaddy
search engine by freefind advanced

loaded 2018-11-17 22:45:43 • last modified 2010-11-18 10:43:29
Privacy PolicyDisclaimer
• wx.awcolley.com is powered by PmWiki v.2002016 •
• all content (unless otherwise noted) © 2018 A W Colley